sensor_id;sensor_type;location;lat;lon;timestamp;P1;durP1;ratioP1;P2;durP2;ratioP2
78989;SDS011;68390;52.130;21.218;2024-03-02T00:02:24;47.03;;;21.25;;
78989;SDS011;68390;52.130;21.218;2024-03-02T00:04:50;45.00;;;21.80;;
78989;SDS011;68390;52.130;21.218;2024-03-02T00:07:16;47.33;;;22.13;;
78989;SDS011;68390;52.130;21.218;2024-03-02T00:09:42;44.78;;;21.05;;
78989;SDS011;68390;52.130;21.218;2024-03-02T00:12:08;46.10;;;22.23;;
78989;SDS011;68390;52.130;21.218;2024-03-02T00:14:36;45.13;;;22.80;;
78989;SDS011;68390;52.130;21.218;2024-03-02T00:17:02;44.47;;;21.27;;
78989;SDS011;68390;52.130;21.218;2024-03-02T00:19:27;42.78;;;21.48;;
78989;SDS011;68390;52.130;21.218;2024-03-02T00:21:53;40.13;;;20.05;;
78989;SDS011;68390;52.130;21.218;2024-03-02T00:26:45;45.03;;;21.35;;
78989;SDS011;68390;52.130;21.218;2024-03-02T00:29:11;42.60;;;21.67;;
78989;SDS011;68390;52.130;21.218;2024-03-02T00:31:44;42.00;;;20.90;;
78989;SDS011;68390;52.130;21.218;2024-03-02T00:34:09;43.30;;;21.13;;
78989;SDS011;68390;52.130;21.218;2024-03-02T00:36:38;45.75;;;23.13;;
78989;SDS011;68390;52.130;21.218;2024-03-02T00:39:04;46.88;;;21.23;;
78989;SDS011;68390;52.130;21.218;2024-03-02T00:41:33;47.10;;;21.67;;
78989;SDS011;68390;52.130;21.218;2024-03-02T00:44:05;47.30;;;22.60;;
78989;SDS011;68390;52.130;21.218;2024-03-02T00:46:35;41.88;;;19.52;;
78989;SDS011;68390;52.130;21.218;2024-03-02T00:49:05;41.67;;;21.83;;
78989;SDS011;68390;52.130;21.218;2024-03-02T00:54:04;43.08;;;20.50;;
78989;SDS011;68390;52.130;21.218;2024-03-02T00:56:31;40.95;;;21.27;;
78989;SDS011;68390;52.130;21.218;2024-03-02T00:58:58;44.75;;;20.92;;
78989;SDS011;68390;52.130;21.218;2024-03-02T01:01:23;46.83;;;21.38;;
78989;SDS011;68390;52.130;21.218;2024-03-02T01:03:49;45.90;;;22.27;;
78989;SDS011;68390;52.130;21.218;2024-03-02T01:06:15;44.30;;;20.88;;
78989;SDS011;68390;52.130;21.218;2024-03-02T01:08:42;42.30;;;21.75;;
78989;SDS011;68390;52.130;21.218;2024-03-02T01:11:07;40.33;;;20.35;;
78989;SDS011;68390;52.130;21.218;2024-03-02T01:13:33;44.95;;;20.77;;
78989;SDS011;68390;52.130;21.218;2024-03-02T01:15:59;45.20;;;21.55;;
78989;SDS011;68390;52.130;21.218;2024-03-02T01:18:24;36.78;;;18.92;;
78989;SDS011;68390;52.130;21.218;2024-03-02T01:20:50;40.85;;;20.20;;
78989;SDS011;68390;52.130;21.218;2024-03-02T01:23:21;40.83;;;19.42;;
78989;SDS011;68390;52.130;21.218;2024-03-02T01:25:50;39.08;;;20.63;;
78989;SDS011;68390;52.130;21.218;2024-03-02T01:28:16;37.42;;;18.33;;
78989;SDS011;68390;52.130;21.218;2024-03-02T01:30:42;42.60;;;20.73;;
78989;SDS011;68390;52.130;21.218;2024-03-02T01:33:08;36.67;;;19.30;;
78989;SDS011;68390;52.130;21.218;2024-03-02T01:35:33;37.65;;;20.33;;
78989;SDS011;68390;52.130;21.218;2024-03-02T01:38:02;42.15;;;20.13;;
78989;SDS011;68390;52.130;21.218;2024-03-02T01:40:28;40.90;;;19.70;;
78989;SDS011;68390;52.130;21.218;2024-03-02T01:42:54;35.42;;;18.77;;
78989;SDS011;68390;52.130;21.218;2024-03-02T01:45:21;39.88;;;20.17;;
78989;SDS011;68390;52.130;21.218;2024-03-02T01:47:46;39.05;;;18.48;;
78989;SDS011;68390;52.130;21.218;2024-03-02T01:50:12;37.92;;;19.77;;
78989;SDS011;68390;52.130;21.218;2024-03-02T01:52:38;39.60;;;19.55;;
78989;SDS011;68390;52.130;21.218;2024-03-02T01:55:05;41.40;;;20.80;;
78989;SDS011;68390;52.130;21.218;2024-03-02T01:57:34;40.78;;;19.05;;
78989;SDS011;68390;52.130;21.218;2024-03-02T02:00:00;41.08;;;21.17;;
78989;SDS011;68390;52.130;21.218;2024-03-02T02:02:25;38.92;;;19.85;;
78989;SDS011;68390;52.130;21.218;2024-03-02T02:04:51;36.35;;;18.45;;
78989;SDS011;68390;52.130;21.218;2024-03-02T02:07:16;38.55;;;19.23;;
78989;SDS011;68390;52.130;21.218;2024-03-02T02:09:42;37.28;;;19.17;;
78989;SDS011;68390;52.130;21.218;2024-03-02T02:12:09;35.05;;;19.15;;
78989;SDS011;68390;52.130;21.218;2024-03-02T02:14:35;42.72;;;19.65;;
78989;SDS011;68390;52.130;21.218;2024-03-02T02:17:01;38.65;;;19.35;;
78989;SDS011;68390;52.130;21.218;2024-03-02T02:19:26;39.47;;;20.17;;
78989;SDS011;68390;52.130;21.218;2024-03-02T02:21:52;40.80;;;20.85;;
78989;SDS011;68390;52.130;21.218;2024-03-02T02:24:17;37.15;;;19.30;;
78989;SDS011;68390;52.130;21.218;2024-03-02T02:26:43;37.92;;;19.33;;
78989;SDS011;68390;52.130;21.218;2024-03-02T02:29:09;40.85;;;20.10;;
78989;SDS011;68390;52.130;21.218;2024-03-02T02:31:37;36.65;;;19.52;;
78989;SDS011;68390;52.130;21.218;2024-03-02T02:34:04;34.38;;;17.95;;
78989;SDS011;68390;52.130;21.218;2024-03-02T02:36:30;35.70;;;17.60;;
78989;SDS011;68390;52.130;21.218;2024-03-02T02:38:56;38.28;;;18.90;;
78989;SDS011;68390;52.130;21.218;2024-03-02T02:41:21;42.35;;;19.90;;
78989;SDS011;68390;52.130;21.218;2024-03-02T02:43:47;37.90;;;18.55;;
78989;SDS011;68390;52.130;21.218;2024-03-02T02:46:13;36.30;;;17.98;;
78989;SDS011;68390;52.130;21.218;2024-03-02T02:48:38;42.60;;;20.67;;
78989;SDS011;68390;52.130;21.218;2024-03-02T02:51:03;41.50;;;18.42;;
78989;SDS011;68390;52.130;21.218;2024-03-02T02:53:29;38.92;;;19.02;;
78989;SDS011;68390;52.130;21.218;2024-03-02T02:55:54;40.33;;;19.67;;
78989;SDS011;68390;52.130;21.218;2024-03-02T02:58:20;34.25;;;18.50;;
78989;SDS011;68390;52.130;21.218;2024-03-02T03:00:45;38.13;;;20.02;;
78989;SDS011;68390;52.130;21.218;2024-03-02T03:03:31;36.88;;;18.58;;
78989;SDS011;68390;52.130;21.218;2024-03-02T03:05:56;31.45;;;16.50;;
78989;SDS011;68390;52.130;21.218;2024-03-02T03:08:22;34.42;;;17.58;;
78989;SDS011;68390;52.130;21.218;2024-03-02T03:10:48;38.03;;;19.17;;
78989;SDS011;68390;52.130;21.218;2024-03-02T03:13:14;35.10;;;17.77;;
78989;SDS011;68390;52.130;21.218;2024-03-02T03:15:40;35.75;;;18.13;;
78989;SDS011;68390;52.130;21.218;2024-03-02T03:18:05;41.55;;;18.95;;
78989;SDS011;68390;52.130;21.218;2024-03-02T03:20:32;41.88;;;19.67;;
78989;SDS011;68390;52.130;21.218;2024-03-02T03:22:58;41.95;;;19.77;;
78989;SDS011;68390;52.130;21.218;2024-03-02T03:25:25;37.35;;;17.88;;
78989;SDS011;68390;52.130;21.218;2024-03-02T03:27:50;39.67;;;19.83;;
78989;SDS011;68390;52.130;21.218;2024-03-02T03:30:19;42.85;;;20.13;;
78989;SDS011;68390;52.130;21.218;2024-03-02T03:32:44;39.40;;;19.25;;
78989;SDS011;68390;52.130;21.218;2024-03-02T03:35:10;39.25;;;18.88;;
78989;SDS011;68390;52.130;21.218;2024-03-02T03:37:37;41.88;;;19.27;;
78989;SDS011;68390;52.130;21.218;2024-03-02T03:40:03;38.88;;;18.40;;
78989;SDS011;68390;52.130;21.218;2024-03-02T03:42:35;43.08;;;21.38;;
78989;SDS011;68390;52.130;21.218;2024-03-02T03:45:04;41.72;;;19.55;;
78989;SDS011;68390;52.130;21.218;2024-03-02T03:47:33;43.58;;;19.73;;
78989;SDS011;68390;52.130;21.218;2024-03-02T03:49:58;38.45;;;19.13;;
78989;SDS011;68390;52.130;21.218;2024-03-02T03:52:24;42.25;;;19.90;;
78989;SDS011;68390;52.130;21.218;2024-03-02T03:54:49;40.95;;;19.33;;
78989;SDS011;68390;52.130;21.218;2024-03-02T03:57:15;42.05;;;19.45;;
78989;SDS011;68390;52.130;21.218;2024-03-02T03:59:41;34.50;;;17.13;;
78989;SDS011;68390;52.130;21.218;2024-03-02T04:02:07;42.60;;;20.08;;
78989;SDS011;68390;52.130;21.218;2024-03-02T04:04:33;42.83;;;20.15;;
78989;SDS011;68390;52.130;21.218;2024-03-02T04:06:58;43.55;;;20.85;;
78989;SDS011;68390;52.130;21.218;2024-03-02T04:09:24;40.67;;;20.42;;
78989;SDS011;68390;52.130;21.218;2024-03-02T04:11:50;44.22;;;21.05;;
78989;SDS011;68390;52.130;21.218;2024-03-02T04:14:16;43.38;;;18.77;;
78989;SDS011;68390;52.130;21.218;2024-03-02T04:16:42;46.33;;;20.63;;
78989;SDS011;68390;52.130;21.218;2024-03-02T04:19:07;45.75;;;21.33;;
78989;SDS011;68390;52.130;21.218;2024-03-02T04:21:32;43.30;;;19.38;;
78989;SDS011;68390;52.130;21.218;2024-03-02T04:23:58;41.75;;;19.88;;
78989;SDS011;68390;52.130;21.218;2024-03-02T04:26:24;38.42;;;19.08;;
78989;SDS011;68390;52.130;21.218;2024-03-02T04:28:50;39.33;;;18.67;;
78989;SDS011;68390;52.130;21.218;2024-03-02T04:31:16;38.78;;;18.50;;
78989;SDS011;68390;52.130;21.218;2024-03-02T04:33:42;45.20;;;20.02;;
78989;SDS011;68390;52.130;21.218;2024-03-02T04:36:08;43.88;;;18.90;;
78989;SDS011;68390;52.130;21.218;2024-03-02T04:38:35;44.58;;;18.42;;
78989;SDS011;68390;52.130;21.218;2024-03-02T04:41:00;43.78;;;20.25;;
78989;SDS011;68390;52.130;21.218;2024-03-02T04:43:26;44.33;;;19.27;;
78989;SDS011;68390;52.130;21.218;2024-03-02T04:45:51;39.72;;;17.92;;
78989;SDS011;68390;52.130;21.218;2024-03-02T04:48:17;39.88;;;17.58;;
78989;SDS011;68390;52.130;21.218;2024-03-02T04:50:42;40.67;;;17.83;;
78989;SDS011;68390;52.130;21.218;2024-03-02T04:53:08;41.10;;;19.10;;
78989;SDS011;68390;52.130;21.218;2024-03-02T04:55:33;42.78;;;17.95;;
78989;SDS011;68390;52.130;21.218;2024-03-02T04:58:04;41.22;;;18.35;;
78989;SDS011;68390;52.130;21.218;2024-03-02T05:00:30;40.90;;;18.77;;
78989;SDS011;68390;52.130;21.218;2024-03-02T05:02:56;38.22;;;18.45;;
78989;SDS011;68390;52.130;21.218;2024-03-02T05:05:21;42.58;;;19.70;;
78989;SDS011;68390;52.130;21.218;2024-03-02T05:07:47;38.08;;;17.40;;
78989;SDS011;68390;52.130;21.218;2024-03-02T05:10:12;42.28;;;19.13;;
78989;SDS011;68390;52.130;21.218;2024-03-02T05:12:38;41.65;;;17.92;;
78989;SDS011;68390;52.130;21.218;2024-03-02T05:15:09;38.45;;;18.10;;
78989;SDS011;68390;52.130;21.218;2024-03-02T05:17:36;45.40;;;19.80;;
78989;SDS011;68390;52.130;21.218;2024-03-02T05:20:05;39.92;;;19.38;;
78989;SDS011;68390;52.130;21.218;2024-03-02T05:22:33;38.95;;;18.27;;
78989;SDS011;68390;52.130;21.218;2024-03-02T05:24:59;41.10;;;19.95;;
78989;SDS011;68390;52.130;21.218;2024-03-02T05:27:26;40.88;;;18.40;;
78989;SDS011;68390;52.130;21.218;2024-03-02T05:29:52;39.80;;;18.00;;
78989;SDS011;68390;52.130;21.218;2024-03-02T05:32:17;36.10;;;17.23;;
78989;SDS011;68390;52.130;21.218;2024-03-02T05:34:42;39.75;;;16.98;;
78989;SDS011;68390;52.130;21.218;2024-03-02T05:37:08;38.63;;;18.40;;
78989;SDS011;68390;52.130;21.218;2024-03-02T05:39:33;38.42;;;18.10;;
78989;SDS011;68390;52.130;21.218;2024-03-02T05:41:59;41.33;;;17.90;;
78989;SDS011;68390;52.130;21.218;2024-03-02T05:44:24;38.05;;;18.13;;
78989;SDS011;68390;52.130;21.218;2024-03-02T05:46:50;34.88;;;17.05;;
78989;SDS011;68390;52.130;21.218;2024-03-02T05:49:15;37.13;;;17.33;;
78989;SDS011;68390;52.130;21.218;2024-03-02T05:51:41;35.33;;;16.73;;
78989;SDS011;68390;52.130;21.218;2024-03-02T05:54:06;37.92;;;17.33;;
78989;SDS011;68390;52.130;21.218;2024-03-02T05:56:32;37.05;;;17.38;;
78989;SDS011;68390;52.130;21.218;2024-03-02T05:58:58;37.38;;;16.65;;
78989;SDS011;68390;52.130;21.218;2024-03-02T06:01:38;38.35;;;17.30;;
78989;SDS011;68390;52.130;21.218;2024-03-02T06:04:04;35.30;;;16.38;;
78989;SDS011;68390;52.130;21.218;2024-03-02T06:06:29;38.65;;;16.52;;
78989;SDS011;68390;52.130;21.218;2024-03-02T06:08:55;37.67;;;16.65;;
78989;SDS011;68390;52.130;21.218;2024-03-02T06:11:21;38.97;;;17.52;;
78989;SDS011;68390;52.130;21.218;2024-03-02T06:13:47;37.35;;;16.92;;
78989;SDS011;68390;52.130;21.218;2024-03-02T06:16:12;39.38;;;16.73;;
78989;SDS011;68390;52.130;21.218;2024-03-02T06:18:38;35.60;;;16.08;;
78989;SDS011;68390;52.130;21.218;2024-03-02T06:21:04;35.72;;;17.00;;
78989;SDS011;68390;52.130;21.218;2024-03-02T06:23:29;34.95;;;15.93;;
78989;SDS011;68390;52.130;21.218;2024-03-02T06:25:55;34.40;;;15.70;;
78989;SDS011;68390;52.130;21.218;2024-03-02T06:28:20;35.17;;;15.57;;
78989;SDS011;68390;52.130;21.218;2024-03-02T06:30:46;31.48;;;15.63;;
78989;SDS011;68390;52.130;21.218;2024-03-02T06:33:11;34.55;;;15.38;;
78989;SDS011;68390;52.130;21.218;2024-03-02T06:35:37;38.05;;;15.65;;
78989;SDS011;68390;52.130;21.218;2024-03-02T06:38:03;33.55;;;15.30;;
78989;SDS011;68390;52.130;21.218;2024-03-02T06:40:28;28.83;;;14.48;;
78989;SDS011;68390;52.130;21.218;2024-03-02T06:42:54;29.15;;;14.65;;
78989;SDS011;68390;52.130;21.218;2024-03-02T06:45:19;31.73;;;15.50;;
78989;SDS011;68390;52.130;21.218;2024-03-02T06:47:44;35.05;;;14.63;;
78989;SDS011;68390;52.130;21.218;2024-03-02T06:50:10;35.08;;;15.18;;
78989;SDS011;68390;52.130;21.218;2024-03-02T06:52:36;32.72;;;15.48;;
78989;SDS011;68390;52.130;21.218;2024-03-02T06:55:01;30.05;;;15.07;;
78989;SDS011;68390;52.130;21.218;2024-03-02T06:57:29;34.47;;;15.25;;
78989;SDS011;68390;52.130;21.218;2024-03-02T06:59:55;33.47;;;16.40;;
78989;SDS011;68390;52.130;21.218;2024-03-02T07:02:23;37.03;;;16.80;;
78989;SDS011;68390;52.130;21.218;2024-03-02T07:04:50;40.30;;;17.85;;
78989;SDS011;68390;52.130;21.218;2024-03-02T07:07:16;35.00;;;16.10;;
78989;SDS011;68390;52.130;21.218;2024-03-02T07:09:41;35.97;;;17.10;;
78989;SDS011;68390;52.130;21.218;2024-03-02T07:12:07;34.22;;;16.02;;
78989;SDS011;68390;52.130;21.218;2024-03-02T07:14:32;32.88;;;16.50;;
78989;SDS011;68390;52.130;21.218;2024-03-02T07:17:36;38.22;;;15.80;;
78989;SDS011;68390;52.130;21.218;2024-03-02T07:20:02;36.75;;;16.45;;
78989;SDS011;68390;52.130;21.218;2024-03-02T07:22:31;37.35;;;17.10;;
78989;SDS011;68390;52.130;21.218;2024-03-02T07:24:58;34.83;;;16.30;;
78989;SDS011;68390;52.130;21.218;2024-03-02T07:27:23;37.35;;;15.23;;
78989;SDS011;68390;52.130;21.218;2024-03-02T07:29:49;33.88;;;16.15;;
78989;SDS011;68390;52.130;21.218;2024-03-02T07:32:14;35.60;;;16.35;;
78989;SDS011;68390;52.130;21.218;2024-03-02T07:34:40;36.75;;;16.50;;
78989;SDS011;68390;52.130;21.218;2024-03-02T07:37:05;34.83;;;15.35;;
78989;SDS011;68390;52.130;21.218;2024-03-02T07:39:31;35.78;;;15.93;;
78989;SDS011;68390;52.130;21.218;2024-03-02T07:41:56;32.72;;;16.33;;
78989;SDS011;68390;52.130;21.218;2024-03-02T07:44:22;36.33;;;15.88;;
78989;SDS011;68390;52.130;21.218;2024-03-02T07:46:48;30.15;;;15.57;;
78989;SDS011;68390;52.130;21.218;2024-03-02T07:49:16;32.75;;;14.52;;
78989;SDS011;68390;52.130;21.218;2024-03-02T07:51:43;34.38;;;16.23;;
78989;SDS011;68390;52.130;21.218;2024-03-02T07:54:08;33.88;;;15.55;;
78989;SDS011;68390;52.130;21.218;2024-03-02T07:56:34;32.47;;;16.10;;
78989;SDS011;68390;52.130;21.218;2024-03-02T07:59:00;31.65;;;15.43;;
78989;SDS011;68390;52.130;21.218;2024-03-02T08:01:27;35.63;;;15.38;;
78989;SDS011;68390;52.130;21.218;2024-03-02T08:03:55;32.50;;;15.07;;
78989;SDS011;68390;52.130;21.218;2024-03-02T08:06:23;31.95;;;16.13;;
78989;SDS011;68390;52.130;21.218;2024-03-02T08:08:55;38.05;;;16.15;;
78989;SDS011;68390;52.130;21.218;2024-03-02T08:11:21;33.65;;;15.75;;
78989;SDS011;68390;52.130;21.218;2024-03-02T08:13:47;35.67;;;16.17;;
78989;SDS011;68390;52.130;21.218;2024-03-02T08:16:13;38.95;;;16.48;;
78989;SDS011;68390;52.130;21.218;2024-03-02T08:18:39;38.25;;;16.40;;
78989;SDS011;68390;52.130;21.218;2024-03-02T08:21:05;37.10;;;16.70;;
78989;SDS011;68390;52.130;21.218;2024-03-02T08:23:33;36.42;;;16.35;;
78989;SDS011;68390;52.130;21.218;2024-03-02T08:25:59;37.33;;;15.23;;
78989;SDS011;68390;52.130;21.218;2024-03-02T08:28:25;34.88;;;15.80;;
78989;SDS011;68390;52.130;21.218;2024-03-02T08:30:50;36.58;;;16.40;;
78989;SDS011;68390;52.130;21.218;2024-03-02T08:33:16;39.05;;;16.98;;
78989;SDS011;68390;52.130;21.218;2024-03-02T08:35:41;31.92;;;15.40;;
78989;SDS011;68390;52.130;21.218;2024-03-02T08:38:07;35.92;;;16.08;;
78989;SDS011;68390;52.130;21.218;2024-03-02T08:40:32;36.97;;;15.82;;
78989;SDS011;68390;52.130;21.218;2024-03-02T08:42:58;38.05;;;15.68;;
78989;SDS011;68390;52.130;21.218;2024-03-02T08:45:23;33.33;;;17.30;;
78989;SDS011;68390;52.130;21.218;2024-03-02T08:47:48;32.45;;;16.15;;
78989;SDS011;68390;52.130;21.218;2024-03-02T08:50:14;31.27;;;15.27;;
78989;SDS011;68390;52.130;21.218;2024-03-02T08:52:40;28.77;;;15.95;;
78989;SDS011;68390;52.130;21.218;2024-03-02T08:55:05;33.65;;;15.43;;
78989;SDS011;68390;52.130;21.218;2024-03-02T08:57:32;31.35;;;15.57;;
78989;SDS011;68390;52.130;21.218;2024-03-02T08:59:58;37.00;;;15.68;;
78989;SDS011;68390;52.130;21.218;2024-03-02T09:02:24;38.88;;;17.08;;
78989;SDS011;68390;52.130;21.218;2024-03-02T09:04:50;32.97;;;15.70;;
78989;SDS011;68390;52.130;21.218;2024-03-02T09:07:16;32.47;;;16.60;;
78989;SDS011;68390;52.130;21.218;2024-03-02T09:09:41;33.17;;;15.63;;
78989;SDS011;68390;52.130;21.218;2024-03-02T09:12:07;32.97;;;15.45;;
78989;SDS011;68390;52.130;21.218;2024-03-02T09:14:33;32.65;;;16.30;;
78989;SDS011;68390;52.130;21.218;2024-03-02T09:16:59;34.60;;;15.55;;
78989;SDS011;68390;52.130;21.218;2024-03-02T09:19:25;33.78;;;16.05;;
78989;SDS011;68390;52.130;21.218;2024-03-02T09:21:50;31.25;;;15.35;;
78989;SDS011;68390;52.130;21.218;2024-03-02T09:24:16;38.47;;;16.13;;
78989;SDS011;68390;52.130;21.218;2024-03-02T09:26:41;35.80;;;15.55;;
78989;SDS011;68390;52.130;21.218;2024-03-02T09:29:07;33.25;;;15.93;;
78989;SDS011;68390;52.130;21.218;2024-03-02T09:31:32;34.00;;;16.23;;
78989;SDS011;68390;52.130;21.218;2024-03-02T09:33:57;37.03;;;17.55;;
78989;SDS011;68390;52.130;21.218;2024-03-02T09:36:23;33.63;;;15.15;;
78989;SDS011;68390;52.130;21.218;2024-03-02T09:38:48;33.10;;;16.05;;
78989;SDS011;68390;52.130;21.218;2024-03-02T09:41:14;37.67;;;16.13;;
78989;SDS011;68390;52.130;21.218;2024-03-02T09:43:40;35.83;;;17.48;;
78989;SDS011;68390;52.130;21.218;2024-03-02T09:46:07;34.88;;;16.75;;
78989;SDS011;68390;52.130;21.218;2024-03-02T09:48:34;32.67;;;16.20;;
78989;SDS011;68390;52.130;21.218;2024-03-02T09:51:00;35.38;;;16.65;;
78989;SDS011;68390;52.130;21.218;2024-03-02T09:53:28;35.67;;;16.40;;
78989;SDS011;68390;52.130;21.218;2024-03-02T09:55:56;29.58;;;14.93;;
78989;SDS011;68390;52.130;21.218;2024-03-02T09:58:22;33.85;;;16.08;;
78989;SDS011;68390;52.130;21.218;2024-03-02T10:00:47;30.17;;;16.05;;
78989;SDS011;68390;52.130;21.218;2024-03-02T10:03:14;31.00;;;15.10;;
78989;SDS011;68390;52.130;21.218;2024-03-02T10:05:40;34.83;;;16.50;;
78989;SDS011;68390;52.130;21.218;2024-03-02T10:08:05;35.47;;;15.88;;
78989;SDS011;68390;52.130;21.218;2024-03-02T10:10:35;34.58;;;16.30;;
78989;SDS011;68390;52.130;21.218;2024-03-02T10:13:04;33.58;;;16.33;;
78989;SDS011;68390;52.130;21.218;2024-03-02T10:15:30;35.08;;;15.38;;
78989;SDS011;68390;52.130;21.218;2024-03-02T10:17:55;34.22;;;17.65;;
78989;SDS011;68390;52.130;21.218;2024-03-02T10:20:24;37.15;;;17.83;;
78989;SDS011;68390;52.130;21.218;2024-03-02T10:22:50;36.85;;;17.90;;
78989;SDS011;68390;52.130;21.218;2024-03-02T10:25:31;29.88;;;15.40;;
78989;SDS011;68390;52.130;21.218;2024-03-02T10:27:58;35.50;;;17.27;;
78989;SDS011;68390;52.130;21.218;2024-03-02T10:30:30;37.38;;;16.88;;
78989;SDS011;68390;52.130;21.218;2024-03-02T10:32:55;35.38;;;17.58;;
78989;SDS011;68390;52.130;21.218;2024-03-02T10:35:23;32.08;;;16.60;;
78989;SDS011;68390;52.130;21.218;2024-03-02T10:37:51;38.35;;;17.98;;
78989;SDS011;68390;52.130;21.218;2024-03-02T10:40:17;41.78;;;19.20;;
78989;SDS011;68390;52.130;21.218;2024-03-02T10:42:43;43.65;;;21.05;;
78989;SDS011;68390;52.130;21.218;2024-03-02T10:45:10;37.05;;;18.88;;
78989;SDS011;68390;52.130;21.218;2024-03-02T10:47:40;37.15;;;19.63;;
78989;SDS011;68390;52.130;21.218;2024-03-02T10:50:07;41.35;;;21.00;;
78989;SDS011;68390;52.130;21.218;2024-03-02T10:52:36;40.75;;;21.38;;
78989;SDS011;68390;52.130;21.218;2024-03-02T10:57:40;39.63;;;19.67;;
78989;SDS011;68390;52.130;21.218;2024-03-02T11:00:13;43.08;;;20.55;;
78989;SDS011;68390;52.130;21.218;2024-03-02T11:03:06;45.95;;;22.98;;
78989;SDS011;68390;52.130;21.218;2024-03-02T11:05:40;46.13;;;23.55;;
78989;SDS011;68390;52.130;21.218;2024-03-02T11:08:13;51.28;;;24.17;;
78989;SDS011;68390;52.130;21.218;2024-03-02T11:10:43;42.15;;;21.45;;
78989;SDS011;68390;52.130;21.218;2024-03-02T11:13:16;50.17;;;24.48;;
78989;SDS011;68390;52.130;21.218;2024-03-02T11:15:46;43.08;;;22.38;;
78989;SDS011;68390;52.130;21.218;2024-03-02T11:18:12;47.13;;;23.30;;
78989;SDS011;68390;52.130;21.218;2024-03-02T11:20:39;44.25;;;21.60;;
78989;SDS011;68390;52.130;21.218;2024-03-02T11:23:06;45.10;;;23.90;;
78989;SDS011;68390;52.130;21.218;2024-03-02T11:25:33;49.53;;;23.83;;
78989;SDS011;68390;52.130;21.218;2024-03-02T11:27:59;45.42;;;22.98;;
78989;SDS011;68390;52.130;21.218;2024-03-02T11:33:01;41.42;;;22.13;;
78989;SDS011;68390;52.130;21.218;2024-03-02T11:35:37;40.80;;;21.38;;
78989;SDS011;68390;52.130;21.218;2024-03-02T11:38:03;41.05;;;22.10;;
78989;SDS011;68390;52.130;21.218;2024-03-02T11:40:29;42.72;;;23.02;;
78989;SDS011;68390;52.130;21.218;2024-03-02T11:43:04;42.03;;;22.27;;
78989;SDS011;68390;52.130;21.218;2024-03-02T11:45:31;39.78;;;21.02;;
78989;SDS011;68390;52.130;21.218;2024-03-02T11:47:58;42.30;;;21.20;;
78989;SDS011;68390;52.130;21.218;2024-03-02T11:51:07;41.60;;;22.92;;
78989;SDS011;68390;52.130;21.218;2024-03-02T11:53:17;43.15;;;20.80;;
78989;SDS011;68390;52.130;21.218;2024-03-02T11:55:44;42.80;;;22.75;;
78989;SDS011;68390;52.130;21.218;2024-03-02T11:58:13;41.67;;;21.38;;
78989;SDS011;68390;52.130;21.218;2024-03-02T12:00:39;34.97;;;19.90;;
78989;SDS011;68390;52.130;21.218;2024-03-02T12:03:05;38.38;;;20.50;;
78989;SDS011;68390;52.130;21.218;2024-03-02T12:05:37;37.05;;;21.23;;
78989;SDS011;68390;52.130;21.218;2024-03-02T12:08:03;40.53;;;20.35;;
78989;SDS011;68390;52.130;21.218;2024-03-02T12:10:30;35.25;;;20.85;;
78989;SDS011;68390;52.130;21.218;2024-03-02T12:13:00;35.20;;;20.15;;
78989;SDS011;68390;52.130;21.218;2024-03-02T12:15:26;37.40;;;21.50;;
78989;SDS011;68390;52.130;21.218;2024-03-02T12:17:53;38.97;;;22.10;;
78989;SDS011;68390;52.130;21.218;2024-03-02T12:20:21;39.65;;;22.13;;
78989;SDS011;68390;52.130;21.218;2024-03-02T12:22:49;42.97;;;20.60;;
78989;SDS011;68390;52.130;21.218;2024-03-02T12:25:24;41.63;;;22.20;;
78989;SDS011;68390;52.130;21.218;2024-03-02T12:27:51;42.60;;;22.33;;
78989;SDS011;68390;52.130;21.218;2024-03-02T12:30:19;40.97;;;20.73;;
78989;SDS011;68390;52.130;21.218;2024-03-02T12:32:45;40.88;;;21.83;;
78989;SDS011;68390;52.130;21.218;2024-03-02T12:35:11;37.58;;;21.40;;
78989;SDS011;68390;52.130;21.218;2024-03-02T12:37:58;41.42;;;21.58;;
78989;SDS011;68390;52.130;21.218;2024-03-02T12:40:23;43.15;;;20.63;;
78989;SDS011;68390;52.130;21.218;2024-03-02T12:42:49;42.90;;;22.33;;
78989;SDS011;68390;52.130;21.218;2024-03-02T12:45:15;38.70;;;20.27;;
78989;SDS011;68390;52.130;21.218;2024-03-02T12:47:48;38.60;;;21.67;;
78989;SDS011;68390;52.130;21.218;2024-03-02T12:50:14;43.65;;;21.83;;
78989;SDS011;68390;52.130;21.218;2024-03-02T12:52:40;36.53;;;21.23;;
78989;SDS011;68390;52.130;21.218;2024-03-02T12:55:05;41.60;;;22.35;;
78989;SDS011;68390;52.130;21.218;2024-03-02T12:57:32;44.50;;;23.15;;
78989;SDS011;68390;52.130;21.218;2024-03-02T13:00:02;41.40;;;22.70;;
78989;SDS011;68390;52.130;21.218;2024-03-02T13:02:35;38.92;;;22.27;;
78989;SDS011;68390;52.130;21.218;2024-03-02T13:05:01;40.13;;;21.77;;
78989;SDS011;68390;52.130;21.218;2024-03-02T13:07:28;42.63;;;22.27;;
78989;SDS011;68390;52.130;21.218;2024-03-02T13:09:55;43.45;;;23.00;;
78989;SDS011;68390;52.130;21.218;2024-03-02T13:12:22;41.00;;;21.40;;
78989;SDS011;68390;52.130;21.218;2024-03-02T13:14:52;38.75;;;21.92;;
78989;SDS011;68390;52.130;21.218;2024-03-02T13:17:18;43.05;;;23.95;;
78989;SDS011;68390;52.130;21.218;2024-03-02T13:19:51;41.50;;;22.65;;
78989;SDS011;68390;52.130;21.218;2024-03-02T13:22:18;43.28;;;22.60;;
78989;SDS011;68390;52.130;21.218;2024-03-02T13:24:43;40.75;;;22.88;;
78989;SDS011;68390;52.130;21.218;2024-03-02T13:27:09;45.53;;;22.77;;
78989;SDS011;68390;52.130;21.218;2024-03-02T13:29:34;40.22;;;22.48;;
78989;SDS011;68390;52.130;21.218;2024-03-02T13:32:00;42.47;;;22.92;;
78989;SDS011;68390;52.130;21.218;2024-03-02T13:34:26;39.25;;;22.27;;
78989;SDS011;68390;52.130;21.218;2024-03-02T13:36:51;48.38;;;21.90;;
78989;SDS011;68390;52.130;21.218;2024-03-02T13:39:17;44.45;;;22.17;;
78989;SDS011;68390;52.130;21.218;2024-03-02T13:41:43;41.95;;;22.52;;
78989;SDS011;68390;52.130;21.218;2024-03-02T13:44:17;41.65;;;22.45;;
78989;SDS011;68390;52.130;21.218;2024-03-02T13:46:43;45.45;;;23.10;;
78989;SDS011;68390;52.130;21.218;2024-03-02T13:49:10;42.03;;;22.25;;
78989;SDS011;68390;52.130;21.218;2024-03-02T13:51:36;41.55;;;22.60;;
78989;SDS011;68390;52.130;21.218;2024-03-02T13:54:02;42.28;;;21.35;;
78989;SDS011;68390;52.130;21.218;2024-03-02T13:56:28;39.95;;;21.15;;
78989;SDS011;68390;52.130;21.218;2024-03-02T13:58:54;46.90;;;22.50;;
78989;SDS011;68390;52.130;21.218;2024-03-02T14:01:20;43.75;;;22.30;;
78989;SDS011;68390;52.130;21.218;2024-03-02T14:03:45;40.40;;;22.35;;
78989;SDS011;68390;52.130;21.218;2024-03-02T14:06:11;44.05;;;23.40;;
78989;SDS011;68390;52.130;21.218;2024-03-02T14:08:37;40.80;;;22.48;;
78989;SDS011;68390;52.130;21.218;2024-03-02T14:11:02;43.58;;;22.58;;
78989;SDS011;68390;52.130;21.218;2024-03-02T14:13:28;43.08;;;22.67;;
78989;SDS011;68390;52.130;21.218;2024-03-02T14:15:54;42.70;;;22.20;;
78989;SDS011;68390;52.130;21.218;2024-03-02T14:18:20;44.63;;;23.23;;